FYKT/KMP METAR and TAF weather

Enter ICAO airport designator
Station Type Date Time Source
FYKT METAR 2019/02/23 03:00 UTC NOAA

FYKT 230300Z AUTO 19003KT //// // ////// 23/03 Q1008


Station Type Date Time Source
FYKT Decoded METAR 2019/02/23 03:00 UTC NOAA

Keetmanshoop, Namibia (FYKT) 26-32S 018-07E 1100M
Feb 22, 2019 - 10:00 PM EST / 2019.02.23 0300 UTC
Wind: from the S (190 degrees) at 3 MPH (3 KT):0
Temperature: 73 F (23 C)
Dew Point: 37 F (3 C)
Relative Humidity: 26%
Pressure (altimeter): 29.77 in. Hg (1008 hPa)
ob: FYKT 230300Z AUTO 19003KT //// // ////// 23/03 Q1008
cycle: 3

Station Type Date Time Source
FYKT TAF 2019/02/22 18:35 UTC NOAA

TAF FYKT 221600Z 2218/2318 20006KT 9999 FEW045
BECMG 2221/2223 18005KT CAVOK


Example: see airport list